PAFAPABT

Guest
Details From PAFA - Fairbanks Intl
To PABT - Bettles
Flight Number -
Tags Generated
Created
Modified
Stats Distance 155 nm / 287 km
Max Altitude 0 ft / 0 m
Waypoints 2
Social Downloads 0
Likes 0
Share VATSIM

Download

Looking for another format? Having issues loading an existing format? Contact us
Advertisement - Login to hide

Notes

Generated

Route

PAFA PABT

ID Type Via Altitude Latitude Longitude Leg Dist Tot Dist Heading (true) Name
O PAFA APT - 0 ft / 0 m 64.81606˚ -147.84656˚ - 0 nm - -
O PABT APT - 0 ft / 0 m 66.90794˚ -151.53869˚ 154 nm 154 nm 326° / 322° -

Altitude Profile

Advertisement - Login to hide

PAFA

Details ICAO PAFA (FAI)
Name FAIRBANKS INTL
Region USA (Alaska)
Timezone America/Anchorage (UTC-8.0)
Stats Elevation 434 ft / 132 m (AMSL)
Location 64.813909° -147.855392°
Runways 3
Magnetic Variation 17.329° E

METAR

PAFA 210853Z 00000KT 10SM -RA BKN050 OVC080 11/10 A2940

Decode

TAF

TAF PAFA 210525Z 2106/2212 34005KT P6SM -SHRA SCT030 BKN060 BKN090 FM212000 07004KT P6SM VCSH SCT030 BKN050 BKN100 FM220200 36004KT P6SM SCT050 SCT100

Decode

Departure Runways

ID Width Length Bearing (true) Bearing (mag) Surface Threshold Offset Overrun Length
01 75 ft / 23 m 2,892 ft / 881 m 38.04° 20.71° Gravel 0 ft / 0 m 0 ft / 0 m
01L 150 ft / 46 m 11,767 ft / 3,587 m 38.00° 20.67° Asphalt 750 ft / 229 m 0 ft / 0 m
01R 100 ft / 30 m 6,482 ft / 1,976 m 38.01° 20.68° Asphalt 0 ft / 0 m 0 ft / 0 m
19 75 ft / 23 m 2,892 ft / 881 m 218.05° 200.72° Gravel 0 ft / 0 m 0 ft / 0 m
19L 100 ft / 30 m 6,482 ft / 1,976 m 218.04° 200.71° Asphalt 0 ft / 0 m 0 ft / 0 m
19R 150 ft / 46 m 11,767 ft / 3,587 m 218.04° 200.71° Asphalt 750 ft / 229 m 0 ft / 0 m

PABT

Details ICAO PABT (BTT)
Name BETTLES
Region USA (Alaska)
Timezone America/Anchorage (UTC-8.0)
Stats Elevation 644 ft / 196 m (AMSL)
Location 66.913940° -151.529042°
Runways 1
Magnetic Variation 16.242° E

METAR

PABT 210853Z 01004KT 10SM FEW065 FEW080 SCT120 BKN160 09/02 A2949 RMK AO2 SLP994 T00940017 401830033 56006

Decode

TAF

TAF PABT 210525Z 2106/2206 04006KT P6SM FEW070 FEW100 OVC120 FM211600 02008KT P6SM -SHRA BKN050 BKN100 FM220400 04004KT P6SM VCSH SCT050 BKN100

Decode

Destination Runways

ID Width Length Bearing (true) Bearing (mag) Surface Threshold Offset Overrun Length
01 150 ft / 46 m 5,174 ft / 1,577 m 32.24° 16.00° Gravel 0 ft / 0 m 0 ft / 0 m
19 150 ft / 46 m 5,174 ft / 1,577 m 212.26° 196.02° Gravel 0 ft / 0 m 0 ft / 0 m

Approach Navaids

Runway Type Ident Frequency Range Bearing (true) Bearing (mag) Slope Elevation
01 Localiser IBTT 108.70 MHz 18 nm / 33 km 32.79° 16.55° - 633 ft / 193 m (AMSL)
01 DME IBTT 108.70 MHz 18 nm / 33 km - - - 653 ft / 199 m (AMSL)

Popular Alternatives